Time;durP1;ratioP1;P1;durP2;ratioP2;P2;SDS_P1;SDS_P2;PMS_P1;PMS_P2;Temp;Humidity;BMP_temperature;BMP_pressure;BME280_temperature;BME280_humidity;BME280_pressure;Samples;Min_cycle;Max_cycle;Signal;HPM_P1;HPM_P2
2019/05/05 07:20:09;;;;;;;;;;;;;;;;;;;;;-51
2019/05/05 07:21:09;;;;;;;;;;;;;;;;;;;;;-51
2019/05/05 07:22:09;;;;;;;;;;;;;;;5.51;80.87;100504.30;;;;-52
2019/05/05 07:23:09;;;;;;;;;;;;;;;5.43;80.22;100503.60;;;;-54
2019/05/05 07:24:09;;;;;;;;;;;;;;;5.53;81.14;100506.10;;;;-53
2019/05/05 07:25:09;;;;;;;;;;;;;;;5.59;80.30;100506.00;;;;-55
2019/05/05 07:26:09;;;;;;;;;;;;;;;5.57;79.91;100512.60;;;;-49
2019/05/05 07:27:09;;;;;;;;;;;;;;;5.57;80.32;100505.40;;;;-46
2019/05/05 07:28:09;;;;;;;;;;;;;;;5.64;80.26;100510.30;;;;-46
2019/05/05 07:29:09;;;;;;;;;;;;;;;5.63;78.93;100511.00;;;;-46
2019/05/05 07:30:09;;;;;;;;;;;;;;;5.64;79.42;100507.50;;;;-46
2019/05/05 07:31:09;;;;;;;;;;;;;;;5.70;79.80;100511.20;;;;-46
2019/05/05 07:32:09;;;;;;;;;;;;;;;5.70;79.55;100512.00;;;;-46
2019/05/05 07:33:09;;;;;;;;;;;;;;;5.70;79.22;100511.30;;;;-46
2019/05/05 07:34:09;;;;;;;;;;;;;;;5.67;78.81;100509.90;;;;-46
2019/05/05 07:35:14;;;;;;;;;;;;;;;5.67;79.46;100512.40;;;;-46
2019/05/05 07:36:45;;;;;;;;;;;;;;;5.83;79.92;100511.20;;;;-46
2019/05/05 07:37:09;;;;;;;;;;;;;;;5.92;79.54;100508.80;;;;-43
2019/05/05 07:38:09;;;;;;;;;;;;;;;5.92;78.56;100512.00;;;;-44
2019/05/05 07:39:10;;;;;;;;;;;;;;;5.94;78.60;100512.20;;;;-43
2019/05/05 07:40:09;;;;;;;;;;;;;;;5.94;78.82;100511.40;;;;-44
2019/05/05 07:41:09;;;;;;;;;;;;;;;5.92;77.58;100515.30;;;;-40
2019/05/05 07:42:09;;;;;;;;;;;;;;;6.00;78.34;100515.40;;;;-41
2019/05/05 07:43:09;;;;;;;;;;;;;;;5.98;77.66;100520.30;;;;-43
2019/05/05 07:44:09;;;;;;;;;;;;;;;5.95;77.61;100517.00;;;;-43
2019/05/05 07:45:09;;;;;;;;;;;;;;;6.00;77.89;100518.80;;;;-50
2019/05/05 07:46:09;;;;;;;;;;;;;;;6.04;77.40;100520.10;;;;-48
2019/05/05 07:47:09;;;;;;;;;;;;;;;6.09;77.01;100525.20;;;;-42
2019/05/05 07:48:09;;;;;;;;;;;;;;;6.05;75.16;100523.30;;;;-52
2019/05/05 07:49:09;;;;;;;;;;;;;;;5.98;75.70;100518.20;;;;-50
2019/05/05 07:50:09;;;;;;;;;;;;;;;6.05;76.66;100516.90;;;;-51
2019/05/05 07:51:09;;;;;;;;;;;;;;;6.09;76.53;100517.60;;;;-52
2019/05/05 07:52:09;;;;;;;;;;;;;;;6.06;74.77;100511.50;;;;-53
2019/05/05 07:53:09;;;;;;;;;;;;;;;6.00;74.85;100507.60;;;;-51
2019/05/05 07:54:09;;;;;;;;;;;;;;;6.13;75.45;100507.90;;;;-53
2019/05/05 07:55:09;;;;;;;;;;;;;;;6.22;74.42;100508.00;;;;-54
2019/05/05 07:56:09;;;;;;;;;;;;;;;6.23;73.14;100508.90;;;;-53
2019/05/05 07:57:09;;;;;;;;;;;;;;;6.32;73.51;100501.10;;;;-54
2019/05/05 07:58:09;;;;;;;;;;;;;;;6.30;72.12;100504.30;;;;-54
2019/05/05 07:59:09;;;;;;;;;;;;;;;6.39;72.54;100507.10;;;;-54
2019/05/05 08:00:09;;;;;;;;;;;;;;;6.47;72.54;100512.20;;;;-51
2019/05/05 08:01:09;;;;;;;;;;;;;;;6.41;71.81;100506.40;;;;-55
2019/05/05 08:02:09;;;;;;;;;;;;;;;6.40;70.97;100509.30;;;;-53
2019/05/05 08:03:09;;;;;;;;;;;;;;;6.41;71.57;100508.50;;;;-53
2019/05/05 08:04:09;;;;;;;;;;;;;;;6.50;72.80;100509.50;;;;-55
2019/05/05 08:05:10;;;;;;;;;;;;;;;6.60;73.36;100511.20;;;;-53
2019/05/05 08:06:09;;;;;;;;;;;;;;;6.60;72.49;100512.40;;;;-52
2019/05/05 08:07:09;;;;;;;;;;;;;;;6.71;72.82;100518.50;;;;-52
2019/05/05 08:08:09;;;;;;;;;;;;;;;6.65;70.99;100514.00;;;;-51
2019/05/05 08:09:09;;;;;;;;;;;;;;;6.65;71.10;100514.40;;;;-53
2019/05/05 08:10:09;;;;;;;;;;;;;;;6.74;70.66;100523.50;;;;-54
2019/05/05 08:11:09;;;;;;;;;;;;;;;6.67;69.72;100517.80;;;;-54
2019/05/05 08:12:09;;;;;;;;;;;;;;;6.67;69.97;100523.30;;;;-50
2019/05/05 08:13:09;;;;;;;;;;;;;;;6.74;70.56;100526.90;;;;-52
2019/05/05 08:14:10;;;;;;;;;;;;;;;6.77;67.88;100521.40;;;;-51
2019/05/05 08:15:09;;;;;;;;;;;;;;;6.88;69.26;100524.30;;;;-53
2019/05/05 08:16:35;;;;;;;;;;;;;;;6.98;69.12;100524.70;;;;-53
2019/05/05 08:17:29;;;;;;;;;;;;;;;6.90;66.38;100530.60;;;;-52
2019/05/05 08:18:34;;;;;;;;;;;;;;;6.95;67.03;100526.30;;;;-53
2019/05/05 08:19:26;;;;;;;;;;;;;;;6.92;67.01;100531.60;;;;-52
2019/05/05 08:20:16;;;;;;;;;;;;;;;6.90;66.45;100530.30;;;;-50
2019/05/05 08:21:09;;;;;;;;;;;;;;;6.90;66.64;100526.10;;;;-54
2019/05/05 08:22:09;;;;;;;;;;;;;;;6.87;65.95;100535.00;;;;-53
2019/05/05 08:23:17;;;;;;;;;;;;;;;6.85;66.35;100539.80;;;;-52
2019/05/05 08:25:14;;;;;;;;;;;;;;;6.78;66.62;100530.50;;;;-51
2019/05/05 08:26:17;;;;;;;;;;;;;;;7.05;68.09;100539.00;;;;-50
2019/05/05 08:27:21;;;;;;;;;;;;;;;7.18;67.80;100542.80;;;;-51
2019/05/05 08:28:23;;;;;;;;;;;;;;;7.27;66.06;100540.90;;;;-51
2019/05/05 08:29:30;;;;;;;;;;;;;;;7.27;62.75;100533.00;;;;-45
2019/05/05 08:30:26;;;;;;;;;;;;;;;7.36;63.66;100531.60;;;;-45
2019/05/05 08:31:25;;;;;;;;;;;;;;;7.31;63.67;100542.00;;;;-46
2019/05/05 08:32:20;;;;;;;;;;;;;;;7.26;63.85;100541.40;;;;-46
2019/05/05 08:33:09;;;;;;;;;;;;;;;7.36;64.52;100540.30;;;;-46
2019/05/05 08:34:09;;;;;;;;;;;;;;;7.39;62.97;100539.50;;;;-45
2019/05/05 08:35:09;;;;;;;;;;;;;;;7.39;63.33;100544.50;;;;-45
2019/05/05 08:36:09;;;;;;;;;;;;;;;7.47;63.20;100545.80;;;;-44
2019/05/05 08:37:10;;;;;;;;;;;;;;;7.50;62.67;100539.50;;;;-45
2019/05/05 08:38:09;;;;;;;;;;;;;;;7.62;62.97;100546.50;;;;-45
2019/05/05 08:39:10;;;;;;;;;;;;;;;7.78;63.60;100551.30;;;;-48
2019/05/05 08:40:10;;;;;;;;;;;;;;;7.61;62.02;100546.20;;;;-48
2019/05/05 08:41:10;;;;;;;;;;;;;;;7.64;63.27;100540.90;;;;-47
2019/05/05 08:42:09;;;;;;;;;;;;;;;7.69;63.68;100546.10;;;;-47
2019/05/05 08:43:10;;;;;;;;;;;;;;;7.80;62.19;100547.40;;;;-47
2019/05/05 08:44:09;;;;;;;;;;;;;;;7.82;60.53;100552.50;;;;-48
2019/05/05 08:45:10;;;;;;;;;;;;;;;7.88;57.94;100550.50;;;;-46
2019/05/05 08:46:09;;;;;;;;;;;;;;;7.86;57.28;100544.60;;;;-47
2019/05/05 08:47:09;;;;;;;;;;;;;;;7.89;58.24;100552.20;;;;-47
2019/05/05 08:48:09;;;;;;;;;;;;;;;7.72;57.29;100544.60;;;;-47
2019/05/05 08:49:09;;;;;;;;;;;;;;;7.84;58.97;100550.40;;;;-47
2019/05/05 08:50:09;;;;;;;;;;;;;;;7.93;58.71;100553.10;;;;-48
2019/05/05 08:51:09;;;;;;;;;;;;;;;7.91;56.87;100553.20;;;;-47
2019/05/05 08:52:10;;;;;;;;;;;;;;;7.92;57.87;100554.20;;;;-50
2019/05/05 08:53:09;;;;;;;;;;;;;;;7.85;58.00;100552.60;;;;-48
2019/05/05 08:54:10;;;;;;;;;;;;;;;7.82;58.98;100550.00;;;;-49
2019/05/05 08:55:09;;;;;;;;;;;;;;;7.89;58.65;100557.00;;;;-51
2019/05/05 08:56:10;;;;;;;;;;;;;;;7.89;58.57;100554.40;;;;-53
2019/05/05 08:57:09;;;;;;;;;;;;;;;8.01;58.91;100552.60;;;;-53
2019/05/05 08:58:09;;;;;;;;;;;;;;;8.03;59.62;100549.60;;;;-54
2019/05/05 08:59:09;;;;;;;;;;;;;;;8.02;59.67;100547.90;;;;-54
2019/05/05 09:00:09;;;;;;;;;;;;;;;7.93;58.61;100552.70;;;;-54
2019/05/05 09:01:09;;;;;;;;;;;;;;;7.81;58.69;100554.00;;;;-53
2019/05/05 09:02:11;;;;;;;;;;;;;;;7.82;58.09;100551.30;;;;-53
2019/05/05 09:03:10;;;;;;;;;;;;;;;7.85;57.76;100554.40;;;;-51
2019/05/05 09:04:09;;;;;;;;;;;;;;;7.96;58.51;100557.00;;;;-52
2019/05/05 09:05:09;;;;;;;;;;;;;;;8.06;58.68;100562.40;;;;-52
2019/05/05 09:06:09;;;;;;;;;;;;;;;8.02;57.00;100557.80;;;;-53
2019/05/05 09:07:10;;;;;;;;;;;;;;;7.99;57.78;100559.60;;;;-53
2019/05/05 09:08:10;;;;;;;;;;;;;;;7.89;57.93;100559.40;;;;-53
2019/05/05 09:09:10;;;;;;;;;;;;;;;7.92;57.63;100552.80;;;;-53
2019/05/05 09:10:09;;;;;;;;;;;;;;;7.92;58.27;100552.60;;;;-53
2019/05/05 09:11:09;;;;;;;;;;;;;;;8.02;59.37;100552.60;;;;-52
2019/05/05 09:12:10;;;;;;;;;;;;;;;8.16;58.81;100546.00;;;;-55
2019/05/05 09:13:10;;;;;;;;;;;;;;;8.37;57.87;100555.20;;;;-51
2019/05/05 09:14:10;;;;;;;;;;;;;;;8.20;53.62;100552.30;;;;-52
2019/05/05 09:15:10;;;;;;;;;;;;;;;8.26;53.95;100547.40;;;;-52
2019/05/05 09:16:09;;;;;;;;;;;;;;;8.30;54.88;100553.60;;;;-53
2019/05/05 09:17:10;;;;;;;;;;;;;;;8.44;54.35;100547.30;;;;-52
2019/05/05 09:18:09;;;;;;;;;;;;;;;8.55;52.69;100559.00;;;;-52
2019/05/05 09:19:13;;;;;;;;;;;;;;;8.49;51.44;100555.70;;;;-53
2019/05/05 09:20:10;;;;;;;;;;;;;;;8.51;50.56;100555.20;;;;-53
2019/05/05 09:21:09;;;;;;;;;;;;;;;8.44;49.19;100549.60;;;;-54
2019/05/05 09:22:10;;;;;;;;;;;;;;;8.55;51.19;100548.70;;;;-52
2019/05/05 09:23:10;;;;;;;;;;;;;;;8.41;49.67;100549.90;;;;-54
2019/05/05 09:24:33;;;;;;;;;;;;;;;8.36;50.12;100548.80;;;;-53
2019/05/05 09:26:24;;;;;;;;;;;;;;;8.55;49.44;100553.00;;;;-53
2019/05/05 09:27:56;;;;;;;;;;;;;;;8.61;49.12;100549.50;;;;-52
2019/05/05 09:28:26;;;;;;;;;;;;;;;8.61;48.88;100544.60;;;;-54
2019/05/05 09:29:22;;;;;;;;;;;;;;;8.47;48.25;100541.60;;;;-51
2019/05/05 09:30:10;;;;;;;;;;;;;;;8.45;49.81;100539.90;;;;-55
2019/05/05 09:31:10;;;;;;;;;;;;;;;8.55;50.53;100542.80;;;;-55
2019/05/05 09:32:10;;;;;;;;;;;;;;;8.68;49.76;100540.90;;;;-58
2019/05/05 09:33:09;;;;;;;;;;;;;;;8.69;49.44;100541.00;;;;-56
2019/05/05 09:34:10;;;;;;;;;;;;;;;8.68;48.18;100542.60;;;;-54
2019/05/05 09:35:09;;;;;;;;;;;;;;;8.68;47.90;100538.30;;;;-52
2019/05/05 09:36:10;;;;;;;;;;;;;;;8.74;49.09;100544.30;;;;-53
2019/05/05 09:37:10;;;;;;;;;;;;;;;8.72;48.53;100543.60;;;;-53
2019/05/05 09:38:04;;;;;;;;;;;;;;;;;;;;;-53
2019/05/05 09:39:04;;;;;;;;;;;;;;;;;;;;;-53
2019/05/05 09:40:04;;;;;;;;;;;;;;;8.55;49.41;100538.80;;;;-54
2019/05/05 09:41:04;;;;;;;;;;;;;;;8.65;50.80;100536.10;;;;-55
2019/05/05 09:42:04;;;;;;;;;;;;;;;8.75;51.59;100536.10;;;;-55
2019/05/05 09:43:04;;;;;;;;;;;;;;;8.83;50.96;100532.30;;;;-54
2019/05/05 09:44:04;;;;;;;;;;;;;;;8.79;48.80;100532.00;;;;-52
2019/05/05 09:45:04;;;;;;;;;;;;;;;8.76;50.05;100534.60;;;;-54
2019/05/05 09:46:04;;;;;;;;;;;;;;;8.88;51.57;100527.70;;;;-54
2019/05/05 09:47:04;;;;;;;;;;;;;;;8.95;51.47;100531.00;;;;-51
2019/05/05 09:48:04;;;;;;;;;;;;;;;8.93;51.17;100535.90;;;;-54
2019/05/05 09:49:13;;;;;;;;;;;;;;;;;;;;;-51
2019/05/05 09:50:13;;;;;;;;;;;;;;;;;;;;;-55
2019/05/05 09:51:13;;;;;;;;;;;;;;;8.86;49.67;100530.90;;;;-53
2019/05/05 09:52:13;;;;;;;;;;;;;;;8.95;51.46;100531.70;;;;-54
2019/05/05 09:53:18;;;;;;;;;;;;;;;;;;;;;-53
2019/05/05 09:54:24;;;;;;;;;;;;;;;;;;;;;-55
2019/05/05 09:55:23;;;;;;;;;;;;;;;;;;;;;-55
2019/05/05 09:56:35;;;;;;;;;;;;;;;;;;;;;-55
2019/05/05 09:57:40;;;;;;;;;;;;;;;;;;;;;-56
2019/05/05 09:58:40;;;;;;;;;;;;;;;;;;;;;-53
2019/05/05 09:59:40;;;;;;;;;;;;;;;9.33;51.31;100534.50;;;;-54
2019/05/05 10:00:45;;;;;;;;;;;;;;;;;;;;;-55
2019/05/05 10:31:10;;;;;;;;;;;;;;;;;;;;;-52
2019/05/05 10:32:10;;;;;;;;;;;;;;;;;;;;;-53
2019/05/05 10:33:27;;;;;;;;;;;;;;;;;;;;;-51
2019/05/05 10:34:27;;;;;;;;;;;;;;;9.38;49.63;100522.70;;;;-52
2019/05/05 10:35:27;;;;;;;;;;;;;;;9.42;48.75;100528.50;;;;-51
2019/05/05 10:36:27;;;;;;;;;;;;;;;9.55;48.43;100528.80;;;;-51
2019/05/05 10:37:27;;;;;;;;;;;;;;;9.45;47.70;100525.30;;;;-51
2019/05/05 10:38:27;;;;;;;;;;;;;;;9.65;48.39;100526.90;;;;-52
2019/05/05 10:39:42;;;;;;;;;;;;;;;9.63;47.48;100519.80;;;;-52
2019/05/05 10:40:32;;;;;;;;;;;;;;;9.68;46.92;100514.10;;;;-51
2019/05/05 10:41:27;;;;;;;;;;;;;;;9.79;47.65;100522.00;;;;-51
2019/05/05 10:42:48;;;;;;;;;;;;;;;9.62;46.66;100520.30;;;;-52
2019/05/05 10:43:27;;;;;;;;;;;;;;;9.61;48.30;100522.40;;;;-51
2019/05/05 10:44:27;;;;;;;;;;;;;;;9.68;49.96;100526.70;;;;-52
2019/05/05 10:45:27;;;;;;;;;;;;;;;9.63;49.55;100533.50;;;;-51
2019/05/05 10:46:28;;;;;;;;;;;;;;;9.33;48.55;100527.00;;;;-51
2019/05/05 10:47:27;;;;;;;;;;;;;;;9.26;49.72;100530.70;;;;-51
2019/05/05 10:48:27;;;;;;;;;;;;;;;9.30;50.29;100532.00;;;;-51
2019/05/05 10:49:27;;;;;;;;;;;;;;;9.27;50.43;100535.20;;;;-52
2019/05/05 10:50:28;;;;;;;;;;;;;;;9.33;51.37;100534.40;;;;-53
2019/05/05 10:51:27;;;;;;;;;;;;;;;9.37;51.25;100530.30;;;;-52
2019/05/05 10:52:27;;;;;;;;;;;;;;;9.37;50.97;100536.50;;;;-52
2019/05/05 10:53:27;;;;;;;;;;;;;;;9.29;50.23;100534.40;;;;-52
2019/05/05 10:54:27;;;;;;;;;;;;;;;9.41;51.02;100533.10;;;;-52
2019/05/05 10:55:27;;;;;;;;;;;;;;;9.30;50.79;100537.80;;;;-51
2019/05/05 10:56:27;;;;;;;;;;;;;;;9.30;51.69;100535.00;;;;-53
2019/05/05 10:57:27;;;;;;;;;;;;;;;9.30;50.70;100533.90;;;;-53
2019/05/05 10:58:27;;;;;;;;;;;;;;;9.44;50.25;100532.60;;;;-52
2019/05/05 10:59:27;;;;;;;;;;;;;;;9.58;50.53;100532.90;;;;-53
2019/05/05 11:00:27;;;;;;;;;;;;;;;9.58;48.89;100526.90;;;;-52
2019/05/05 11:01:27;;;;;;;;;;;;;;;9.61;49.58;100537.20;;;;-51
2019/05/05 11:02:27;;;;;;;;;;;;;;;9.59;48.88;100532.30;;;;-53
2019/05/05 11:03:27;;;;;;;;;;;;;;;9.40;48.72;100537.40;;;;-53
2019/05/05 11:04:27;;;;;;;;;;;;;;;9.40;49.75;100538.80;;;;-52
2019/05/05 11:05:28;;;;;;;;;;;;;;;9.35;49.67;100531.20;;;;-52
2019/05/05 11:06:27;;;;;;;;;;;;;;;9.33;49.72;100530.30;;;;-52
2019/05/05 11:07:27;;;;;;;;;;;;;;;9.49;51.68;100531.80;;;;-51
2019/05/05 11:08:28;;;;;;;;;;;;;;;9.73;51.12;100535.30;;;;-52
2019/05/05 11:09:27;;;;;;;;;;;;;;;9.75;50.09;100530.50;;;;-52
2019/05/05 11:10:28;;;;;;;;;;;;;;;9.85;50.76;100532.80;;;;-52
2019/05/05 11:11:27;;;;;;;;;;;;;;;10.00;51.07;100535.00;;;;-51
2019/05/05 11:12:27;;;;;;;;;;;;;;;9.90;49.71;100530.20;;;;-52
2019/05/05 11:13:28;;;;;;;;;;;;;;;9.75;49.98;100534.90;;;;-52
2019/05/05 11:14:28;;;;;;;;;;;;;;;10.06;52.23;100532.80;;;;-53
2019/05/05 11:15:28;;;;;;;;;;;;;;;10.06;50.08;100531.90;;;;-52
2019/05/05 11:16:27;;;;;;;;;;;;;;;9.82;50.93;100530.40;;;;-53
2019/05/05 11:17:27;;;;;;;;;;;;;;;9.82;51.31;100524.50;;;;-52
2019/05/05 11:18:27;;;;;;;;;;;;;;;9.83;51.47;100524.50;;;;-52
2019/05/05 11:19:27;;;;;;;;;;;;;;;9.85;51.10;100532.50;;;;-52
2019/05/05 11:20:27;;;;;;;;;;;;;;;9.57;49.60;100531.30;;;;-52
2019/05/05 11:21:28;;;;;;;;;;;;;;;9.58;50.40;100529.10;;;;-52
2019/05/05 11:22:27;;;;;;;;;;;;;;;9.65;50.61;100526.60;;;;-52
2019/05/05 11:23:27;;;;;;;;;;;;;;;9.76;50.36;100535.40;;;;-51
2019/05/05 11:24:27;;;;;;;;;;;;;;;9.42;50.65;100534.30;;;;-51
2019/05/05 11:25:27;;;;;;;;;;;;;;;9.55;51.96;100533.00;;;;-51
2019/05/05 11:26:27;;;;;;;;;;;;;;;9.57;51.76;100535.40;;;;-53
2019/05/05 11:27:27;;;;;;;;;;;;;;;9.58;50.68;100527.20;;;;-53
2019/05/05 11:28:27;;;;;;;;;;;;;;;9.73;51.98;100521.80;;;;-53
2019/05/05 11:29:27;;;;;;;;;;;;;;;10.07;53.14;100529.00;;;;-52
2019/05/05 11:30:27;;;;;;;;;;;;;;;10.28;52.62;100528.00;;;;-52
2019/05/05 11:31:27;;;;;;;;;;;;;;;10.27;51.17;100538.00;;;;-52
2019/05/05 11:33:42;;;;;;;;;;;;;;;10.24;50.59;100538.00;;;;-51
2019/05/05 11:34:29;;;;;;;;;;;;;;;10.28;51.90;100540.00;;;;-52
2019/05/05 11:35:46;;;;;;;;;;;;;;;10.10;50.58;100536.70;;;;-51
2019/05/05 11:37:27;;;;;;;;;;;;;;;10.25;52.02;100537.80;;;;-53
2019/05/05 11:38:27;;;;;;;;;;;;;;;10.21;51.20;100539.30;;;;-53
2019/05/05 11:39:27;;;;;;;;;;;;;;;10.07;50.06;100538.90;;;;-52
2019/05/05 11:40:31;;;;;;;;;;;;;;;10.07;51.04;100539.60;;;;-52
2019/05/05 11:41:28;;;;;;;;;;;;;;;10.02;50.88;100535.30;;;;-52
2019/05/05 11:42:28;;;;;;;;;;;;;;;10.06;51.06;100534.70;;;;-52
2019/05/05 11:43:28;;;;;;;;;;;;;;;10.04;51.83;100538.60;;;;-53
2019/05/05 11:44:28;;;;;;;;;;;;;;;9.97;51.84;100543.30;;;;-53
2019/05/05 11:45:27;;;;;;;;;;;;;;;9.83;51.57;100536.40;;;;-55
2019/05/05 11:46:27;;;;;;;;;;;;;;;9.88;53.44;100536.90;;;;-56
2019/05/05 11:47:27;;;;;;;;;;;;;;;9.85;52.67;100538.60;;;;-55
2019/05/05 11:48:12;;;;;;;;;;;;;;;;;;;;;-55
2019/05/05 11:49:13;;;;;;;;;;;;;;;;;;;;;-53
2019/05/05 11:50:13;;;;;;;;;;;;;;;9.90;53.23;100541.30;;;;-54
2019/05/05 11:51:13;;;;;;;;;;;;;;;10.06;53.64;100539.40;;;;-54
2019/05/05 11:52:13;;;;;;;;;;;;;;;10.03;52.06;100536.80;;;;-54
2019/05/05 11:53:10;;;;;;;;;;;;;;;;;;;;;-54
2019/05/05 11:54:11;;;;;;;;;;;;;;;10.23;52.39;100533.10;;;;-55
2019/05/05 11:55:10;;;;;;;;;;;;;;;10.13;51.50;100533.90;;;;-53
2019/05/05 11:56:10;;;;;;;;;;;;;;;10.20;52.47;100533.60;;;;-51
2019/05/05 11:57:36;;;;;;;;;;;;;;;;;;;;;-55
2019/05/05 11:58:36;;;;;;;;;;;;;;;;;;;;;-53
2019/05/05 11:59:36;;;;;;;;;;;;;;;9.94;51.04;100535.90;;;;-53
2019/05/05 12:00:36;;;;;;;;;;;;;;;10.13;52.40;100536.40;;;;-52
2019/05/05 12:01:36;;;;;;;;;;;;;;;10.31;52.00;100535.70;;;;-53
2019/05/05 12:02:36;;;;;;;;;;;;;;;10.41;51.17;100535.30;;;;-55
2019/05/05 12:03:36;;;;;;;;;;;;;;;10.44;50.73;100534.20;;;;-54
2019/05/05 12:04:36;;;;;;;;;;;;;;;10.44;50.72;100531.60;;;;-56
2019/05/05 12:05:36;;;;;;;;;;;;;;;10.42;51.55;100535.40;;;;-53
2019/05/05 12:06:56;;;;;;;;;;;;;;;;;;;;;-53
2019/05/05 12:07:56;;;;;;;;;;;;;;;;;;;;;-54
2019/05/05 12:08:57;;;;;;;;;;;;;;;10.31;50.65;100544.40;;;;-53
2019/05/05 12:10:38;;;;;;;;;;;;;;;;;;;;;-57
2019/05/05 12:11:13;;;;;;;;;;;;;;;;;;;;;-54
2019/05/05 12:12:11;;;;;;;;;;;;;;;10.03;51.48;100545.60;;;;-54
2019/05/05 12:13:11;;;;;;;;;;;;;;;10.17;51.62;100543.20;;;;-53
2019/05/05 12:14:12;;;;;;;;;;;;;;;9.99;51.11;100541.80;;;;-53
2019/05/05 12:15:11;;;;;;;;;;;;;;;9.88;51.72;100545.10;;;;-53
2019/05/05 12:15:59;;;;;;;;;;;;;;;;;;;;;-54
2019/05/05 12:16:53;;;;;;;;;;;;;;;9.93;51.89;100539.90;;;;-54
2019/05/05 12:17:52;;;;;;;;;;;;;;;10.11;52.34;100542.20;;;;-57
2019/05/05 12:18:52;;;;;;;;;;;;;;;10.16;52.19;100541.00;;;;-57
2019/05/05 12:19:52;;;;;;;;;;;;;;;10.23;51.86;100536.70;;;;-55
2019/05/05 12:20:53;;;;;;;;;;;;;;;10.20;51.26;100544.00;;;;-54
2019/05/05 12:21:53;;;;;;;;;;;;;;;10.06;51.63;100541.80;;;;-52
2019/05/05 12:23:03;;;;;;;;;;;;;;;;;;;;;-52
2019/05/05 12:24:14;;;;;;;;;;;;;;;;;;;;;-58
2019/05/05 12:25:36;;;;;;;;;;;;;;;9.75;52.57;100543.20;;;;-56
2019/05/05 12:27:16;;;;;;;;;;;;;;;9.85;52.54;100538.80;;;;-55
2019/05/05 12:28:26;;;;;;;;;;;;;;;9.73;52.45;100534.70;;;;-54
2019/05/05 12:29:06;;;;;;;;;;;;;;;;;;;;;-56
2019/05/05 12:30:05;;;;;;;;;;;;;;;;;;;;;-52
2019/05/05 12:30:57;;;;;;;;;;;;;;;9.65;52.66;100539.70;;;;-54
2019/05/05 12:31:56;;;;;;;;;;;;;;;9.76;54.05;100537.70;;;;-53
2019/05/05 12:32:56;;;;;;;;;;;;;;;9.81;53.91;100541.30;;;;-52
2019/05/05 12:34:16;;;;;;;;;;;;;;;;;;;;;-52
2019/05/05 12:35:15;;;;;;;;;;;;;;;;;;;;;-52
2019/05/05 12:36:16;;;;;;;;;;;;;;;9.79;52.48;100544.50;;;;-53
2019/05/05 12:37:16;;;;;;;;;;;;;;;9.82;53.10;100546.80;;;;-53
2019/05/05 12:37:50;;;;;;;;;;;;;;;;;;;;;-55
2019/05/05 12:38:50;;;;;;;;;;;;;;;9.76;52.55;100542.70;;;;-52
2019/05/05 12:39:50;;;;;;;;;;;;;;;9.78;53.05;100543.30;;;;-51
2019/05/05 12:40:50;;;;;;;;;;;;;;;9.85;53.81;100540.50;;;;-52
2019/05/05 12:41:50;;;;;;;;;;;;;;;9.90;52.62;100546.30;;;;-51
2019/05/05 12:42:50;;;;;;;;;;;;;;;9.83;50.82;100541.20;;;;-51
2019/05/05 12:43:50;;;;;;;;;;;;;;;9.89;51.26;100543.30;;;;-59
2019/05/05 12:45:00;;;;;;;;;;;;;;;;;;;;;-52
2019/05/05 12:45:47;;;;;;;;;;;;;;;;;;;;;-54
2019/05/05 12:47:03;;;;;;;;;;;;;;;10.04;49.40;100541.10;;;;-53
2019/05/05 12:48:44;;;;;;;;;;;;;;;10.51;50.87;100543.40;;;;-55
2019/05/05 12:52:11;;;;;;;;;;;;;;;;;;;;;-54
2019/05/05 12:53:11;;;;;;;;;;;;;;;;;;;;;-53
2019/05/05 12:54:11;;;;;;;;;;;;;;;10.48;50.63;100545.90;;;;-52
2019/05/05 12:55:11;;;;;;;;;;;;;;;10.47;50.94;100543.20;;;;-53
2019/05/05 12:56:11;;;;;;;;;;;;;;;10.39;50.42;100542.20;;;;-53
2019/05/05 12:57:11;;;;;;;;;;;;;;;10.47;51.70;100549.20;;;;-53
2019/05/05 12:58:11;;;;;;;;;;;;;;;10.32;51.31;100548.00;;;;-53
2019/05/05 12:59:19;;;;;;;;;;;;;;;10.28;51.74;100543.00;;;;-53
2019/05/05 13:00:11;;;;;;;;;;;;;;;10.24;52.22;100541.80;;;;-52
2019/05/05 13:01:18;;;;;;;;;;;;;;;10.28;52.13;100544.80;;;;-52
2019/05/05 13:02:17;;;;;;;;;;;;;;;10.35;52.86;100544.80;;;;-53
2019/05/05 13:03:14;;;;;;;;;;;;;;;10.35;51.99;100548.90;;;;-53
2019/05/05 13:04:16;;;;;;;;;;;;;;;10.30;51.64;100543.40;;;;-54
2019/05/05 13:05:16;;;;;;;;;;;;;;;10.35;52.08;100546.00;;;;-54
2019/05/05 13:06:18;;;;;;;;;;;;;;;10.32;52.18;100547.60;;;;-53
2019/05/05 13:07:11;;;;;;;;;;;;;;;10.38;52.34;100546.60;;;;-54
2019/05/05 13:08:11;;;;;;;;;;;;;;;10.42;52.48;100549.80;;;;-54
2019/05/05 13:09:11;;;;;;;;;;;;;;;10.48;52.50;100548.20;;;;-55
2019/05/05 13:10:11;;;;;;;;;;;;;;;10.49;52.81;100546.40;;;;-54
2019/05/05 13:11:11;;;;;;;;;;;;;;;10.51;52.26;100546.50;;;;-53
2019/05/05 13:12:11;;;;;;;;;;;;;;;10.42;51.06;100545.50;;;;-53
2019/05/05 13:13:11;;;;;;;;;;;;;;;10.41;50.97;100550.00;;;;-53
2019/05/05 13:14:11;;;;;;;;;;;;;;;10.51;50.35;100551.80;;;;-53
2019/05/05 13:15:11;;;;;;;;;;;;;;;10.47;49.61;100546.10;;;;-54
2019/05/05 13:16:11;;;;;;;;;;;;;;;10.41;50.58;100548.60;;;;-55
2019/05/05 13:17:11;;;;;;;;;;;;;;;10.41;50.16;100547.80;;;;-53
2019/05/05 13:18:11;;;;;;;;;;;;;;;10.45;51.19;100547.50;;;;-54
2019/05/05 13:19:24;;;;;;;;;;;;;;;10.37;50.67;100549.30;;;;-54
2019/05/05 13:20:29;;;;;;;;;;;;;;;10.32;51.10;100546.40;;;;-54
2019/05/05 13:23:09;;;;;;;;;;;;;;;10.13;51.38;100545.80;;;;-54
2019/05/05 13:23:36;;;;;;;;;;;;;;;10.16;51.91;100547.70;;;;-54
2019/05/05 13:24:37;;;;;;;;;;;;;;;10.09;51.62;100548.60;;;;-53
2019/05/05 13:26:07;;;;;;;;;;;;;;;10.11;51.88;100546.50;;;;-53
2019/05/05 13:26:36;;;;;;;;;;;;;;;10.20;52.40;100547.40;;;;-53
2019/05/05 13:27:19;;;;;;;;;;;;;;;10.11;51.09;100544.30;;;;-53
2019/05/05 13:28:11;;;;;;;;;;;;;;;10.00;50.81;100541.70;;;;-55
2019/05/05 13:29:12;;;;;;;;;;;;;;;10.10;51.78;100546.50;;;;-54
2019/05/05 13:30:12;;;;;;;;;;;;;;;10.14;50.45;100548.90;;;;-53
2019/05/05 13:31:12;;;;;;;;;;;;;;;10.14;50.48;100541.80;;;;-53
2019/05/05 13:32:11;;;;;;;;;;;;;;;10.19;49.63;100549.10;;;;-53
2019/05/05 13:33:12;;;;;;;;;;;;;;;10.20;49.90;100544.30;;;;-54
2019/05/05 13:34:11;;;;;;;;;;;;;;;10.25;50.40;100541.20;;;;-55
2019/05/05 13:35:12;;;;;;;;;;;;;;;10.28;49.54;100544.00;;;;-54
2019/05/05 13:36:12;;;;;;;;;;;;;;;10.24;49.41;100543.90;;;;-54
2019/05/05 13:37:12;;;;;;;;;;;;;;;10.30;50.41;100540.30;;;;-53
2019/05/05 13:38:11;;;;;;;;;;;;;;;10.32;50.16;100541.50;;;;-54
2019/05/05 13:39:12;;;;;;;;;;;;;;;10.25;49.07;100540.90;;;;-53
2019/05/05 13:40:11;;;;;;;;;;;;;;;10.20;48.51;100545.80;;;;-52
2019/05/05 13:41:11;;;;;;;;;;;;;;;10.19;48.66;100545.50;;;;-52
2019/05/05 13:42:12;;;;;;;;;;;;;;;10.13;47.89;100543.30;;;;-54
2019/05/05 13:43:11;;;;;;;;;;;;;;;10.23;49.53;100542.50;;;;-52
2019/05/05 13:44:26;;;;;;;;;;;;;;;10.27;49.72;100546.10;;;;-53
2019/05/05 13:45:36;;;;;;;;;;;;;;;10.30;49.31;100545.10;;;;-54
2019/05/05 13:46:19;;;;;;;;;;;;;;;10.17;49.08;100546.50;;;;-54
2019/05/05 13:47:11;;;;;;;;;;;;;;;10.16;48.80;100543.30;;;;-54
2019/05/05 13:48:11;;;;;;;;;;;;;;;10.25;50.40;100546.40;;;;-52
2019/05/05 13:49:25;;;;;;;;;;;;;;;10.37;50.51;100543.20;;;;-54
2019/05/05 13:50:22;;;;;;;;;;;;;;;10.37;50.28;100543.80;;;;-54
2019/05/05 13:51:12;;;;;;;;;;;;;;;10.32;49.90;100542.30;;;;-54
2019/05/05 13:52:12;;;;;;;;;;;;;;;10.38;49.36;100538.80;;;;-54
2019/05/05 13:53:12;;;;;;;;;;;;;;;10.48;49.41;100539.10;;;;-54
2019/05/05 13:54:12;;;;;;;;;;;;;;;10.56;49.70;100537.00;;;;-55
2019/05/05 13:55:11;;;;;;;;;;;;;;;10.62;49.06;100531.00;;;;-54
2019/05/05 13:56:11;;;;;;;;;;;;;;;10.68;46.74;100528.50;;;;-53
2019/05/05 13:57:12;;;;;;;;;;;;;;;10.94;46.74;100530.50;;;;-53
2019/05/05 13:58:12;;;;;;;;;;;;;;;11.08;46.87;100528.40;;;;-53
2019/05/05 13:59:12;;;;;;;;;;;;;;;11.14;45.93;100529.20;;;;-53
2019/05/05 14:00:14;;;;;;;;;;;;;;;11.24;47.33;100526.50;;;;-53
2019/05/05 14:01:11;;;;;;;;;;;;;;;11.22;46.03;100527.30;;;;-53
2019/05/05 14:02:11;;;;;;;;;;;;;;;11.25;46.16;100525.90;;;;-52
2019/05/05 14:03:12;;;;;;;;;;;;;;;11.37;47.35;100529.80;;;;-53
2019/05/05 14:04:12;;;;;;;;;;;;;;;11.15;46.00;100531.30;;;;-53
2019/05/05 14:05:11;;;;;;;;;;;;;;;11.28;45.24;100526.80;;;;-54
2019/05/05 14:06:12;;;;;;;;;;;;;;;11.34;45.66;100524.70;;;;-53
2019/05/05 14:07:12;;;;;;;;;;;;;;;11.25;45.18;100525.70;;;;-53
2019/05/05 14:08:12;;;;;;;;;;;;;;;11.08;44.35;100522.30;;;;-54
2019/05/05 14:09:12;;;;;;;;;;;;;;;11.22;45.02;100523.30;;;;-55
2019/05/05 14:10:12;;;;;;;;;;;;;;;11.32;45.05;100524.60;;;;-54
2019/05/05 14:11:12;;;;;;;;;;;;;;;11.45;44.61;100521.80;;;;-53
2019/05/05 14:12:12;;;;;;;;;;;;;;;11.34;45.30;100519.10;;;;-54
2019/05/05 14:13:12;;;;;;;;;;;;;;;11.31;44.49;100521.40;;;;-54
2019/05/05 14:14:12;;;;;;;;;;;;;;;11.34;44.08;100522.50;;;;-53
2019/05/05 14:15:12;;;;;;;;;;;;;;;11.22;44.61;100519.70;;;;-52
2019/05/05 14:16:12;;;;;;;;;;;;;;;11.06;45.25;100517.00;;;;-53
2019/05/05 14:17:12;;;;;;;;;;;;;;;11.03;45.91;100519.80;;;;-61
2019/05/05 14:18:12;;;;;;;;;;;;;;;10.79;45.29;100519.00;;;;-58
2019/05/05 14:19:12;;;;;;;;;;;;;;;10.80;45.87;100514.40;;;;-58
2019/05/05 14:20:12;;;;;;;;;;;;;;;10.80;46.45;100514.50;;;;-57
2019/05/05 14:21:12;;;;;;;;;;;;;;;10.90;46.41;100518.10;;;;-58
2019/05/05 14:22:12;;;;;;;;;;;;;;;10.96;45.39;100519.30;;;;-53
2019/05/05 14:23:12;;;;;;;;;;;;;;;10.92;44.87;100514.80;;;;-55
2019/05/05 14:24:36;;;;;;;;;;;;;;;11.01;45.12;100519.50;;;;-55
2019/05/05 14:25:22;;;;;;;;;;;;;;;11.06;45.40;100520.20;;;;-55
2019/05/05 14:26:12;;;;;;;;;;;;;;;11.07;45.51;100519.10;;;;-53
2019/05/05 14:27:12;;;;;;;;;;;;;;;10.86;45.83;100517.30;;;;-55
2019/05/05 14:28:12;;;;;;;;;;;;;;;10.80;45.68;100516.10;;;;-55
2019/05/05 14:29:34;;;;;;;;;;;;;;;10.79;46.32;100516.00;;;;-54
2019/05/05 14:31:16;;;;;;;;;;;;;;;10.92;46.68;100513.90;;;;-55
2019/05/05 14:32:14;;;;;;;;;;;;;;;10.79;45.13;100513.00;;;;-54